createdAt,value
2022-08-03T00:00:28.831Z,12.98
2022-08-03T00:02:55.959Z,13.00
2022-08-03T00:05:23.024Z,13.02
2022-08-03T00:07:49.901Z,13.02
2022-08-03T00:10:17.335Z,13.04
2022-08-03T00:12:44.290Z,13.07
2022-08-03T00:15:16.663Z,13.09
2022-08-03T00:17:52.676Z,13.08
2022-08-03T00:20:21.994Z,13.09
2022-08-03T00:22:49.887Z,13.11
2022-08-03T00:25:17.220Z,13.14
2022-08-03T00:27:44.262Z,13.16
2022-08-03T00:30:11.568Z,13.18
2022-08-03T00:32:38.751Z,13.18
2022-08-03T00:35:35.124Z,13.17
2022-08-03T00:37:59.646Z,13.18
2022-08-03T00:40:26.982Z,13.16
2022-08-03T00:43:05.979Z,13.16
2022-08-03T00:45:40.843Z,13.20
2022-08-03T00:48:19.743Z,13.22
2022-08-03T00:50:56.450Z,13.24
2022-08-03T00:53:23.500Z,13.24
2022-08-03T00:55:50.401Z,13.24
2022-08-03T00:58:17.472Z,13.23
2022-08-03T01:00:44.516Z,13.23
2022-08-03T01:03:12.202Z,13.25
2022-08-03T01:05:58.727Z,13.24
2022-08-03T01:08:26.259Z,13.31
2022-08-03T01:11:11.596Z,13.34
2022-08-03T01:14:01.557Z,13.37
2022-08-03T01:16:45.299Z,13.38
2022-08-03T01:19:43.262Z,13.40
2022-08-03T01:22:28.976Z,13.45
2022-08-03T01:25:29.081Z,13.46
2022-08-03T01:28:26.059Z,13.50
2022-08-03T01:30:57.171Z,13.53
2022-08-03T01:33:35.500Z,13.53
2022-08-03T01:36:05.250Z,13.56
2022-08-03T01:38:57.104Z,13.58
2022-08-03T01:41:39.483Z,13.63
2022-08-03T01:44:29.665Z,13.66
2022-08-03T01:46:59.100Z,13.69
2022-08-03T01:49:27.258Z,13.71
2022-08-03T01:52:03.033Z,13.72
2022-08-03T01:54:37.361Z,13.69
2022-08-03T01:57:04.633Z,13.70
2022-08-03T01:59:32.841Z,13.72
2022-08-03T02:02:28.516Z,13.73
2022-08-03T02:04:47.696Z,13.73
2022-08-03T02:07:15.751Z,13.71
2022-08-03T02:09:45.169Z,13.71
2022-08-03T02:12:12.558Z,13.73
2022-08-03T02:14:41.409Z,13.72
2022-08-03T02:17:09.558Z,13.73
2022-08-03T02:19:37.219Z,13.73
2022-08-03T02:22:05.376Z,13.72
2022-08-03T02:24:32.342Z,13.69
2022-08-03T02:27:00.548Z,13.68
2022-08-03T02:29:39.846Z,13.69
2022-08-03T02:32:14.479Z,13.69
2022-08-03T02:34:46.051Z,13.69
2022-08-03T02:37:13.698Z,13.70
2022-08-03T02:39:43.009Z,13.71
2022-08-03T02:42:13.062Z,13.72
2022-08-03T02:44:41.601Z,13.73
2022-08-03T02:47:10.619Z,13.72
2022-08-03T02:49:51.693Z,13.72
2022-08-03T02:52:24.020Z,13.74
2022-08-03T02:54:57.583Z,13.75
2022-08-03T02:57:27.365Z,13.76
2022-08-03T02:59:55.573Z,13.77
2022-08-03T03:02:22.797Z,13.78
2022-08-03T03:05:51.764Z,13.80
2022-08-03T03:07:51.707Z,13.82
2022-08-03T03:10:23.949Z,13.86
2022-08-03T03:12:53.288Z,13.89
2022-08-03T03:15:20.496Z,13.93
2022-08-03T03:17:49.788Z,13.97
2022-08-03T03:20:29.155Z,14.02
2022-08-03T03:22:59.363Z,14.08
2022-08-03T03:25:26.442Z,14.12
2022-08-03T03:27:54.308Z,14.15
2022-08-03T03:30:21.785Z,14.18
2022-08-03T03:32:49.169Z,14.23
2022-08-03T03:35:16.724Z,14.26
2022-08-03T03:37:43.708Z,14.29
2022-08-03T03:40:11.487Z,14.33
2022-08-03T03:42:38.573Z,14.39
2022-08-03T03:45:07.201Z,14.47
2022-08-03T03:47:35.648Z,14.54
2022-08-03T03:50:04.620Z,14.60
2022-08-03T03:52:33.125Z,14.71
2022-08-03T03:55:01.309Z,14.82
2022-08-03T03:57:29.315Z,14.94
2022-08-03T03:59:56.881Z,15.04
2022-08-03T04:02:23.968Z,15.15
2022-08-03T04:05:09.317Z,15.23
2022-08-03T04:08:24.641Z,15.35
2022-08-03T04:11:29.134Z,15.51
2022-08-03T04:14:16.335Z,15.69
2022-08-03T04:16:47.688Z,15.89
2022-08-03T04:19:28.947Z,16.11
2022-08-03T04:22:00.740Z,16.32
2022-08-03T04:24:34.971Z,16.48
2022-08-03T04:27:03.609Z,16.64
2022-08-03T04:29:33.727Z,17.00
2022-08-03T04:32:01.123Z,17.61
2022-08-03T04:34:30.735Z,18.52
2022-08-03T04:37:00.468Z,18.96
2022-08-03T04:39:30.562Z,18.87
2022-08-03T04:42:07.534Z,18.93
2022-08-03T04:44:45.253Z,18.96
2022-08-03T04:47:12.301Z,18.94
2022-08-03T04:49:39.779Z,18.89
2022-08-03T04:52:08.820Z,18.78
2022-08-03T04:54:45.923Z,18.75
2022-08-03T04:57:22.310Z,18.80
2022-08-03T05:00:02.098Z,18.81
2022-08-03T05:02:31.494Z,18.86
2022-08-03T05:04:58.987Z,18.90
2022-08-03T05:07:25.906Z,19.03
2022-08-03T05:10:01.844Z,19.14
2022-08-03T05:12:32.747Z,19.33
2022-08-03T05:15:00.609Z,19.52
2022-08-03T05:17:28.543Z,19.62
2022-08-03T05:19:55.844Z,19.73
2022-08-03T05:22:23.242Z,19.90
2022-08-03T05:24:50.583Z,20.11
2022-08-03T05:27:19.428Z,20.28
2022-08-03T05:29:47.571Z,20.39
2022-08-03T05:32:15.458Z,20.48
2022-08-03T05:34:42.448Z,20.50
2022-08-03T05:37:10.026Z,20.53
2022-08-03T05:39:38.019Z,20.73
2022-08-03T05:42:05.105Z,20.86
2022-08-03T05:44:32.256Z,21.00
2022-08-03T05:46:59.841Z,21.11
2022-08-03T05:49:26.827Z,21.33
2022-08-03T05:51:59.811Z,21.61
2022-08-03T05:54:55.572Z,22.10
2022-08-03T05:57:23.566Z,22.50
2022-08-03T05:59:53.922Z,22.75
2022-08-03T06:02:26.039Z,22.92
2022-08-03T06:04:52.998Z,23.33
2022-08-03T06:07:20.152Z,23.69
2022-08-03T06:10:34.186Z,23.94
2022-08-03T06:12:37.343Z,24.03
2022-08-03T06:15:05.185Z,23.99
2022-08-03T06:17:37.107Z,23.99
2022-08-03T06:20:06.216Z,24.19
2022-08-03T06:22:33.421Z,24.37
2022-08-03T06:25:04.816Z,24.51
2022-08-03T06:27:37.155Z,24.67
2022-08-03T06:30:05.395Z,24.83
2022-08-03T06:32:32.464Z,25.04
2022-08-03T06:35:00.142Z,25.15
2022-08-03T06:37:27.292Z,25.24
2022-08-03T06:39:54.635Z,25.34
2022-08-03T06:42:22.678Z,25.37
2022-08-03T06:44:50.000Z,25.54
2022-08-03T06:47:17.322Z,25.74
2022-08-03T06:49:44.512Z,25.85
2022-08-03T06:52:37.716Z,25.92
2022-08-03T06:55:07.059Z,25.93
2022-08-03T06:57:34.057Z,26.06
2022-08-03T07:00:09.903Z,26.21
2022-08-03T07:02:39.952Z,26.49
2022-08-03T07:05:08.452Z,26.71
2022-08-03T07:07:35.608Z,26.80
2022-08-03T07:10:03.486Z,26.94
2022-08-03T07:12:31.047Z,27.03
2022-08-03T07:15:01.689Z,27.08
2022-08-03T07:17:30.989Z,27.23
2022-08-03T07:19:58.851Z,27.37
2022-08-03T07:22:26.077Z,27.44
2022-08-03T07:24:53.229Z,27.44
2022-08-03T07:27:20.427Z,27.52
2022-08-03T07:29:47.475Z,27.66
2022-08-03T07:32:14.688Z,27.77
2022-08-03T07:34:41.959Z,27.90
2022-08-03T07:37:09.018Z,27.97
2022-08-03T07:39:36.047Z,27.97
2022-08-03T07:42:03.310Z,28.15
2022-08-03T07:44:30.238Z,28.30
2022-08-03T07:46:57.853Z,28.38
2022-08-03T07:49:25.260Z,28.46
2022-08-03T07:52:12.172Z,28.56
2022-08-03T07:54:39.217Z,28.66
2022-08-03T07:57:06.342Z,28.81
2022-08-03T07:59:56.838Z,29.03
2022-08-03T08:02:22.290Z,29.26
2022-08-03T08:04:49.179Z,29.22
2022-08-03T08:07:16.259Z,29.25
2022-08-03T08:09:45.367Z,29.21
2022-08-03T08:12:15.574Z,29.11
2022-08-03T08:14:45.784Z,29.14
2022-08-03T08:17:13.537Z,29.20
2022-08-03T08:19:44.577Z,29.16
2022-08-03T08:22:30.216Z,29.19
2022-08-03T08:25:01.663Z,29.24
2022-08-03T08:28:30.619Z,29.43
2022-08-03T08:30:19.670Z,29.50
2022-08-03T08:32:47.207Z,29.45
2022-08-03T08:35:14.356Z,29.56
2022-08-03T08:37:41.695Z,29.45
2022-08-03T08:40:09.777Z,29.47
2022-08-03T08:42:51.902Z,29.52
2022-08-03T08:45:24.931Z,29.45
2022-08-03T08:47:54.724Z,29.44
2022-08-03T08:50:27.708Z,29.21
2022-08-03T08:52:55.477Z,29.28
2022-08-03T08:55:23.528Z,29.37
2022-08-03T08:57:59.283Z,29.37
2022-08-03T09:00:26.376Z,29.42
2022-08-03T09:02:53.447Z,29.49
2022-08-03T09:05:35.759Z,29.59
2022-08-03T09:08:08.366Z,29.70
2022-08-03T09:10:35.472Z,29.74
2022-08-03T09:13:02.516Z,29.80
2022-08-03T09:15:31.772Z,29.86
2022-08-03T09:18:01.507Z,29.95
2022-08-03T09:20:31.546Z,29.99
2022-08-03T09:23:26.293Z,29.96
2022-08-03T09:26:01.624Z,29.99
2022-08-03T09:28:58.051Z,29.99
2022-08-03T09:31:41.390Z,29.95
2022-08-03T09:34:16.360Z,29.98
2022-08-03T09:36:48.253Z,30.06
2022-08-03T09:39:17.312Z,30.04
2022-08-03T09:41:47.052Z,29.93
2022-08-03T09:44:25.296Z,29.96
2022-08-03T09:46:55.758Z,29.99
2022-08-03T09:49:23.270Z,29.91
2022-08-03T09:52:32.823Z,29.93
2022-08-03T09:54:37.526Z,30.09
2022-08-03T09:57:04.597Z,30.21
2022-08-03T09:59:33.477Z,30.20
2022-08-03T10:02:01.981Z,30.14
2022-08-03T10:04:29.163Z,30.14
2022-08-03T10:07:08.465Z,29.99
2022-08-03T10:09:36.264Z,30.09
2022-08-03T10:12:13.389Z,30.18
2022-08-03T10:14:45.822Z,30.20
2022-08-03T10:17:13.193Z,30.16
2022-08-03T10:19:41.368Z,30.09
2022-08-03T10:22:16.704Z,30.15
2022-08-03T10:24:52.276Z,30.21
2022-08-03T10:27:20.780Z,30.27
2022-08-03T10:29:52.360Z,30.26
2022-08-03T10:32:23.187Z,30.24
2022-08-03T10:34:52.113Z,30.23
2022-08-03T10:37:31.036Z,30.25
2022-08-03T10:39:58.787Z,30.00
2022-08-03T10:42:27.346Z,29.92
2022-08-03T10:45:06.279Z,29.95
2022-08-03T10:47:34.585Z,30.09
2022-08-03T10:50:02.386Z,30.22
2022-08-03T10:52:32.823Z,30.33
2022-08-03T10:55:56.122Z,30.33
2022-08-03T10:58:56.891Z,30.37
2022-08-03T11:01:58.953Z,30.30
2022-08-03T11:04:30.204Z,30.37
2022-08-03T11:07:16.469Z,30.43
2022-08-03T11:09:56.878Z,30.20
2022-08-03T11:12:31.155Z,30.08
2022-08-03T11:15:05.346Z,30.17
2022-08-03T11:17:33.871Z,30.26
2022-08-03T11:20:14.097Z,30.35
2022-08-03T11:22:54.594Z,30.50
2022-08-03T11:25:54.366Z,30.70
2022-08-03T11:28:41.849Z,30.59
2022-08-03T11:31:48.875Z,30.25
2022-08-03T11:34:16.057Z,30.08
2022-08-03T11:37:21.798Z,30.21
2022-08-03T11:39:51.486Z,30.52
2022-08-03T11:42:25.045Z,30.68
2022-08-03T11:44:56.039Z,30.62
2022-08-03T11:47:24.484Z,30.54
2022-08-03T11:49:52.916Z,30.61
2022-08-03T11:52:26.922Z,30.56
2022-08-03T11:54:56.743Z,30.48
2022-08-03T11:59:16.499Z,30.58
2022-08-03T12:00:29.977Z,30.62
2022-08-03T12:03:04.136Z,30.63
2022-08-03T12:05:52.655Z,30.68
2022-08-03T12:08:32.552Z,30.85
2022-08-03T12:11:01.719Z,30.98
2022-08-03T12:14:44.358Z,31.03
2022-08-03T12:16:28.902Z,30.89
2022-08-03T12:19:03.836Z,30.95
2022-08-03T12:21:31.264Z,31.00
2022-08-03T12:24:01.499Z,31.09
2022-08-03T12:26:30.056Z,31.20
2022-08-03T12:28:58.360Z,31.23
2022-08-03T12:31:28.575Z,31.17
2022-08-03T12:33:59.581Z,31.15
2022-08-03T12:36:27.499Z,31.24
2022-08-03T12:38:59.181Z,31.27
2022-08-03T12:41:35.419Z,31.35
2022-08-03T12:44:07.287Z,31.40
2022-08-03T12:46:37.386Z,31.46
2022-08-03T12:49:04.600Z,31.55
2022-08-03T12:51:34.457Z,31.42
2022-08-03T12:54:01.984Z,31.34
2022-08-03T12:56:29.316Z,31.46
2022-08-03T12:58:57.037Z,31.45
2022-08-03T13:01:25.265Z,31.35
2022-08-03T13:03:54.045Z,31.33
2022-08-03T13:06:25.967Z,31.20
2022-08-03T13:09:07.601Z,31.17
2022-08-03T13:11:55.781Z,31.34
2022-08-03T13:14:23.779Z,31.51
2022-08-03T13:16:52.452Z,31.69
2022-08-03T13:19:19.799Z,31.86
2022-08-03T13:22:01.953Z,31.88
2022-08-03T13:24:32.787Z,31.88
2022-08-03T13:27:00.611Z,31.86
2022-08-03T13:29:47.769Z,31.64
2022-08-03T13:32:14.807Z,31.69
2022-08-03T13:34:41.864Z,31.76
2022-08-03T13:37:09.986Z,31.76
2022-08-03T13:39:57.865Z,31.81
2022-08-03T13:42:25.270Z,31.91
2022-08-03T13:44:52.486Z,31.94
2022-08-03T13:47:20.561Z,32.02
2022-08-03T13:50:00.002Z,32.01
2022-08-03T13:52:38.187Z,32.05
2022-08-03T13:55:07.008Z,32.02
2022-08-03T13:58:03.676Z,31.97
2022-08-03T14:00:29.206Z,31.72
2022-08-03T14:03:05.323Z,31.72
2022-08-03T14:05:36.000Z,31.58
2022-08-03T14:08:05.339Z,31.61
2022-08-03T14:10:34.639Z,31.62
2022-08-03T14:13:02.009Z,31.58
2022-08-03T14:15:29.382Z,31.60
2022-08-03T14:17:58.698Z,31.66
2022-08-03T14:20:36.844Z,31.65
2022-08-03T14:23:07.262Z,31.66
2022-08-03T14:25:44.434Z,31.55
2022-08-03T14:28:21.360Z,31.51
2022-08-03T14:30:48.749Z,31.58
2022-08-03T14:33:16.226Z,31.61
2022-08-03T14:35:43.609Z,31.65
2022-08-03T14:38:10.844Z,31.66
2022-08-03T14:40:37.901Z,31.55
2022-08-03T14:43:05.036Z,31.52
2022-08-03T14:45:32.547Z,31.33
2022-08-03T14:50:34.938Z,31.31
2022-08-03T14:50:51.339Z,31.38
2022-08-03T14:53:19.348Z,31.44
2022-08-03T14:55:50.375Z,31.37
2022-08-03T14:58:20.972Z,31.30
2022-08-03T15:00:50.608Z,31.30
2022-08-03T15:03:21.781Z,31.27
2022-08-03T15:05:49.143Z,31.29
2022-08-03T15:08:16.518Z,31.31
2022-08-03T15:10:44.412Z,31.26
2022-08-03T15:13:13.424Z,31.23
2022-08-03T15:15:41.138Z,31.07
2022-08-03T15:18:08.487Z,31.09
2022-08-03T15:20:51.084Z,31.02
2022-08-03T15:23:19.139Z,31.02
2022-08-03T15:26:29.553Z,31.00
2022-08-03T15:28:34.430Z,30.97
2022-08-03T15:31:05.559Z,30.93
2022-08-03T15:33:32.870Z,30.92
2022-08-03T15:36:02.695Z,30.97
2022-08-03T15:38:29.678Z,30.95
2022-08-03T15:40:57.016Z,30.88
2022-08-03T15:43:24.392Z,30.84
2022-08-03T15:46:19.037Z,30.83
2022-08-03T15:48:39.285Z,30.81
2022-08-03T15:51:06.920Z,30.77
2022-08-03T15:53:34.866Z,30.77
2022-08-03T15:56:09.378Z,30.75
2022-08-03T15:59:10.238Z,30.69
2022-08-03T16:01:26.950Z,30.60
2022-08-03T16:03:54.208Z,30.57
2022-08-03T16:06:29.430Z,30.49
2022-08-03T16:09:01.522Z,30.38
2022-08-03T16:11:28.652Z,30.24
2022-08-03T16:14:13.002Z,30.17
2022-08-03T16:16:42.618Z,30.00
2022-08-03T16:19:09.769Z,29.93
2022-08-03T16:21:38.595Z,29.89
2022-08-03T16:24:17.520Z,29.82
2022-08-03T16:26:52.834Z,29.75
2022-08-03T16:29:22.392Z,29.67
2022-08-03T16:31:51.670Z,29.62
2022-08-03T16:34:19.068Z,29.55
2022-08-03T16:36:46.095Z,29.50
2022-08-03T16:39:13.110Z,29.42
2022-08-03T16:41:53.762Z,29.37
2022-08-03T16:44:28.747Z,29.28
2022-08-03T16:46:55.746Z,29.19
2022-08-03T16:49:54.297Z,29.11
2022-08-03T16:52:09.800Z,29.04
2022-08-03T16:54:40.129Z,28.98
2022-08-03T16:57:08.616Z,28.91
2022-08-03T16:59:37.069Z,28.85
2022-08-03T17:02:09.941Z,28.78
2022-08-03T17:04:40.217Z,28.74
2022-08-03T17:07:08.894Z,28.67
2022-08-03T17:09:38.477Z,28.61
2022-08-03T17:12:06.372Z,28.56
2022-08-03T17:14:34.250Z,28.50
2022-08-03T17:17:04.225Z,28.44
2022-08-03T17:19:32.769Z,28.39
2022-08-03T17:22:18.628Z,28.30
2022-08-03T17:24:54.835Z,28.23
2022-08-03T17:28:49.290Z,28.16
2022-08-03T17:30:18.971Z,28.09
2022-08-03T17:32:56.654Z,28.03
2022-08-03T17:35:36.471Z,27.98
2022-08-03T17:38:10.456Z,27.94
2022-08-03T17:40:47.965Z,27.85
2022-08-03T17:44:12.720Z,27.76
2022-08-03T17:46:07.139Z,27.71
2022-08-03T17:48:34.416Z,27.63
2022-08-03T17:51:33.109Z,27.52
2022-08-03T17:54:03.178Z,27.46
2022-08-03T17:56:48.672Z,27.38
2022-08-03T17:59:50.930Z,27.26
2022-08-03T18:03:03.437Z,27.16
2022-08-03T18:08:29.792Z,26.89
2022-08-03T18:11:03.540Z,26.83
2022-08-03T18:13:43.500Z,26.74
2022-08-03T18:16:28.545Z,26.62
2022-08-03T18:18:57.221Z,26.52
2022-08-03T18:21:28.125Z,26.42
2022-08-03T18:24:15.809Z,26.33
2022-08-03T18:26:43.294Z,26.18
2022-08-03T18:29:16.176Z,26.02
2022-08-03T18:32:02.646Z,25.83
2022-08-03T18:34:34.237Z,25.65
2022-08-03T18:37:07.533Z,25.51
2022-08-03T18:39:49.353Z,25.31
2022-08-03T18:42:19.226Z,25.12
2022-08-03T18:44:53.803Z,24.97
2022-08-03T18:47:50.786Z,24.74
2022-08-03T18:50:36.741Z,24.58
2022-08-03T18:53:16.408Z,24.35
2022-08-03T18:55:59.384Z,24.13
2022-08-03T18:58:35.742Z,24.00
2022-08-03T19:01:15.417Z,23.91
2022-08-03T19:04:44.259Z,23.79
2022-08-03T19:07:16.132Z,23.69
2022-08-03T19:09:54.609Z,23.53
2022-08-03T19:12:37.399Z,23.44
2022-08-03T19:15:10.363Z,23.32
2022-08-03T19:17:50.362Z,23.19
2022-08-03T19:20:22.650Z,23.10
2022-08-03T19:22:56.190Z,23.08
2022-08-03T19:25:35.124Z,23.07
2022-08-03T19:28:06.329Z,23.06
2022-08-03T19:30:40.326Z,23.06
2022-08-03T19:33:13.810Z,23.00
2022-08-03T19:35:55.532Z,22.97
2022-08-03T19:38:28.802Z,22.92
2022-08-03T19:40:59.709Z,22.85
2022-08-03T19:43:32.960Z,22.69
2022-08-03T19:46:06.255Z,22.60
2022-08-03T19:48:34.662Z,22.56
2022-08-03T19:51:04.616Z,22.53
2022-08-03T19:53:43.188Z,22.43
2022-08-03T19:56:14.381Z,22.33
2022-08-03T19:58:43.267Z,22.22
2022-08-03T20:01:19.398Z,22.12
2022-08-03T20:03:50.139Z,22.00
2022-08-03T20:06:18.104Z,21.91
2022-08-03T20:08:51.583Z,21.79
2022-08-03T20:11:20.542Z,21.72
2022-08-03T20:13:58.477Z,21.64
2022-08-03T20:16:26.516Z,21.57
2022-08-03T20:18:56.045Z,21.53
2022-08-03T20:21:24.986Z,21.40
2022-08-03T20:24:01.640Z,21.29
2022-08-03T20:26:31.716Z,21.21
2022-08-03T20:29:08.950Z,21.10
2022-08-03T20:31:37.509Z,21.04
2022-08-03T20:34:06.198Z,20.98
2022-08-03T20:36:33.558Z,20.93
2022-08-03T20:39:01.086Z,20.88
2022-08-03T20:41:35.053Z,20.84
2022-08-03T20:44:02.293Z,20.78
2022-08-03T20:46:38.526Z,20.73
2022-08-03T20:49:14.031Z,20.69
2022-08-03T20:51:49.820Z,20.65
2022-08-03T20:54:30.951Z,20.63
2022-08-03T20:57:04.145Z,20.57
2022-08-03T20:59:50.154Z,20.52
2022-08-03T21:02:30.340Z,20.47
2022-08-03T21:05:02.845Z,20.39
2022-08-03T21:08:04.354Z,20.39
2022-08-03T21:10:33.018Z,20.34
2022-08-03T21:12:56.698Z,27.06
2022-08-03T21:16:12.868Z,20.22
2022-08-03T21:18:50.094Z,20.19
2022-08-03T21:21:20.148Z,20.18
2022-08-03T21:23:52.619Z,20.17
2022-08-03T21:26:22.438Z,20.20
2022-08-03T21:28:51.217Z,20.17
2022-08-03T21:31:24.336Z,20.13
2022-08-03T21:34:04.862Z,20.04
2022-08-03T21:36:34.287Z,20.02
2022-08-03T21:39:02.926Z,19.95
2022-08-03T21:41:31.652Z,19.89
2022-08-03T21:44:00.274Z,19.91
2022-08-03T21:46:29.951Z,19.93
2022-08-03T21:50:04.558Z,19.94
2022-08-03T21:51:50.695Z,19.97
2022-08-03T21:54:20.805Z,20.00
2022-08-03T21:56:48.375Z,19.99
2022-08-03T21:59:20.228Z,19.99
2022-08-03T22:01:49.212Z,20.05
2022-08-03T22:04:50.756Z,20.05
2022-08-03T22:07:07.866Z,20.01
2022-08-03T22:09:35.939Z,20.00
2022-08-03T22:12:03.742Z,19.99
2022-08-03T22:14:33.182Z,19.99
2022-08-03T22:17:01.287Z,19.99
2022-08-03T22:19:33.333Z,19.98
2022-08-03T22:22:00.743Z,19.96
2022-08-03T22:24:29.068Z,19.90
2022-08-03T22:27:15.018Z,19.89
2022-08-03T22:29:42.679Z,19.87
2022-08-03T22:32:10.805Z,19.85
2022-08-03T22:34:38.829Z,19.88
2022-08-03T22:37:06.980Z,19.88
2022-08-03T22:39:35.515Z,19.91
2022-08-03T22:42:05.543Z,19.91
2022-08-03T22:44:32.908Z,19.92
2022-08-03T22:47:00.093Z,19.92
2022-08-03T22:49:28.602Z,19.92
2022-08-03T22:51:56.470Z,19.98
2022-08-03T22:54:23.668Z,20.02
2022-08-03T22:56:51.452Z,20.02
2022-08-03T22:59:40.283Z,20.01
2022-08-03T23:02:21.141Z,20.00
2022-08-03T23:04:54.597Z,19.98
2022-08-03T23:07:45.225Z,19.96
2022-08-03T23:10:13.993Z,19.96
2022-08-03T23:12:42.461Z,19.96
2022-08-03T23:15:13.361Z,19.95
2022-08-03T23:17:58.129Z,19.96
2022-08-03T23:20:27.035Z,19.98
2022-08-03T23:22:57.832Z,19.98
2022-08-03T23:25:25.469Z,19.98
2022-08-03T23:28:04.618Z,19.99
2022-08-03T23:30:34.745Z,19.99
2022-08-03T23:33:02.514Z,19.98
2022-08-03T23:36:28.256Z,19.95
2022-08-03T23:38:36.423Z,19.94
2022-08-03T23:41:04.751Z,19.94
2022-08-03T23:43:52.374Z,19.94
2022-08-03T23:46:24.538Z,19.94
2022-08-03T23:48:51.536Z,19.93
2022-08-03T23:51:57.551Z,19.89
2022-08-03T23:54:35.150Z,19.91
2022-08-03T23:57:38.119Z,19.90
